Dart — OUOV2 — position and weather

sailwx.info

Track history (hours):
 
Tides and Currents Weather Stations Pressure Air Temp Water Temp Dewpoint Dewpoint Depression Visibility Wind Speed Wind Dir Waves Ship Positions

Dart

Last reported at 2014-Oct-30 08:21 UTC. Time now 2014-Oct-30 12:23 UTC.
Position N 70°38' E 023°39'.

Length 66 m; draft 3.5 m.

Type: Tanker. MMSI: 219416000.

Date/timePositionNaut miles runAvg speedWind from/ knotsBaromVisibWave heightAir tempDewpointWater temp
2014-Oct-30 08:21N 70°38' E 023°39'0 0.0
2014-Oct-29 08:30N 70°38' E 023°39'10 8.5
2014-Oct-29 07:17N 70°35' E 023°10'9710.5
2014-Oct-28 22:05N 69°45' E 019°05'610.7
2014-Oct-28 21:33N 69°40' E 019°00'15110.0
2014-Oct-28 06:29N 67°47' E 014°23'1010.6
2014-Oct-28 05:32N 67°37' E 014°22'1010.5
2014-Oct-28 04:33N 67°27' E 014°26'1110.6
2014-Oct-28 03:33N 67°17' E 014°15'1111.1
2014-Oct-28 02:33N 67°07' E 014°01'1110.9
2014-Oct-28 01:33N 67°00' E 013°40'1210.1
2014-Oct-28 00:23N 66°51' E 013°20'2010.5
2014-Oct-27 22:26N 66°32' E 012°59'910.4
2014-Oct-27 21:33N 66°23' E 012°58'1 0.1
2014-Oct-27 04:33N 66°22' E 012°58'9 8.3
2014-Oct-27 03:30N 66°31' E 012°58'29 7.1
2014-Oct-26 23:26N 66°57' E 013°29'16 8.3
2014-Oct-26 21:33N 67°07' E 013°60'8 8.2
2014-Oct-26 20:33N 67°14' E 014°10'8 8.4
2014-Oct-26 19:33N 67°21' E 014°22'8 7.8
2014-Oct-26 18:33N 67°29' E 014°23'7 7.0
2014-Oct-26 17:33N 67°36' E 014°20'5 5.4
2014-Oct-26 16:33N 67°41' E 014°18'5 5.2
2014-Oct-26 15:33N 67°46' E 014°21'144 8.5
2014-Oct-25 22:32N 69°33' E 018°45'8 8.1
2014-Oct-25 21:33N 69°39' E 018°59'104 8.6
2014-Oct-25 09:26N 70°36' E 023°17'7 8.3
2014-Oct-25 08:33N 70°38' E 023°39'0 0.1
2014-Oct-25 01:27N 70°38' E 023°39'6 5.9
2014-Oct-25 00:30N 70°38' E 023°22'1311.5
2014-Oct-24 23:21N 70°30' E 022°51'8910.1
2014-Oct-24 14:33N 69°45' E 019°06'7 6.7
2014-Oct-24 13:34N 69°39' E 018°58'152 9.5
2014-Oct-23 21:33N 67°45' E 014°19'1010.0
2014-Oct-23 20:33N 67°35' E 014°20'1110.7
2014-Oct-23 19:33N 67°25' E 014°27'1110.9
2014-Oct-23 18:33N 67°15' E 014°12'1110.6
2014-Oct-23 17:33N 67°06' E 013°58'1110.7
2014-Oct-23 16:31N 66°58' E 013°39'29 9.6
2014-Oct-23 13:27N 66°33' E 013°01'9 9.5
2014-Oct-23 12:32N 66°24' E 012°59'8 0.3
2014-Oct-22 13:12N 66°17' E 012°56'6 8.1
2014-Oct-22 12:26N 66°23' E 012°58'7 7.9
2014-Oct-22 11:33N 66°30' E 012°59'30 7.5
2014-Oct-22 07:33N 66°57' E 013°29'9 8.7
2014-Oct-22 06:28N 67°02' E 013°49'8 8.4
2014-Oct-22 05:34N 67°08' E 014°02'8 8.4
2014-Oct-22 04:33N 67°15' E 014°12'8 8.3
2014-Oct-22 03:33N 67°22' E 014°24'6 6.1
2014-Oct-22 02:33N 67°28' E 014°24'6 6.4
2014-Oct-22 01:33N 67°35' E 014°23'7 7.0
2014-Oct-22 00:33N 67°42' E 014°22'7 7.4
2014-Oct-21 23:33N 67°49' E 014°25'143 8.4
2014-Oct-21 06:32N 69°35' E 018°50'8 8.3
2014-Oct-21 05:33N 69°42' E 019°02'93 8.4
2014-Oct-20 18:30N 70°30' E 022°53'8 8.9
2014-Oct-20 17:33N 70°36' E 023°14'8 8.3
2014-Oct-20 16:33N 70°37' E 023°38'1 0.3
2014-Oct-20 14:03N 70°38' E 023°39'0 0.0
2014-Oct-20 12:18N 70°38' E 023°39'0 0.0
2014-Oct-20 10:33N 70°38' E 023°39'  
Track history (hours):
 
Tides and Currents Weather Stations Pressure Air Temp Water Temp Dewpoint Dewpoint Depression Visibility Wind Speed Wind Dir Waves Ship Positions

Dart

Last reported at 2014-Oct-30 08:21 UTC. Time now 2014-Oct-30 12:23 UTC.
Position N 70°38' E 023°39'.

Length 66 m; draft 3.5 m.

Type: Tanker. MMSI: 219416000.

Date/timePositionNaut miles runAvg speedWind from/ knotsBaromVisibWave heightAir tempDewpointWater temp
2014-Oct-30 08:21N 70°38' E 023°39'0 0.0
2014-Oct-29 08:30N 70°38' E 023°39'10 8.5
2014-Oct-29 07:17N 70°35' E 023°10'9710.5
2014-Oct-28 22:05N 69°45' E 019°05'610.7
2014-Oct-28 21:33N 69°40' E 019°00'15110.0
2014-Oct-28 06:29N 67°47' E 014°23'1010.6
2014-Oct-28 05:32N 67°37' E 014°22'1010.5
2014-Oct-28 04:33N 67°27' E 014°26'1110.6
2014-Oct-28 03:33N 67°17' E 014°15'1111.1
2014-Oct-28 02:33N 67°07' E 014°01'1110.9
2014-Oct-28 01:33N 67°00' E 013°40'1210.1
2014-Oct-28 00:23N 66°51' E 013°20'2010.5
2014-Oct-27 22:26N 66°32' E 012°59'910.4
2014-Oct-27 21:33N 66°23' E 012°58'1 0.1
2014-Oct-27 04:33N 66°22' E 012°58'9 8.3
2014-Oct-27 03:30N 66°31' E 012°58'29 7.1
2014-Oct-26 23:26N 66°57' E 013°29'16 8.3
2014-Oct-26 21:33N 67°07' E 013°60'8 8.2
2014-Oct-26 20:33N 67°14' E 014°10'8 8.4
2014-Oct-26 19:33N 67°21' E 014°22'8 7.8
2014-Oct-26 18:33N 67°29' E 014°23'7 7.0
2014-Oct-26 17:33N 67°36' E 014°20'5 5.4
2014-Oct-26 16:33N 67°41' E 014°18'5 5.2
2014-Oct-26 15:33N 67°46' E 014°21'144 8.5
2014-Oct-25 22:32N 69°33' E 018°45'8 8.1
2014-Oct-25 21:33N 69°39' E 018°59'104 8.6
2014-Oct-25 09:26N 70°36' E 023°17'7 8.3
2014-Oct-25 08:33N 70°38' E 023°39'0 0.1
2014-Oct-25 01:27N 70°38' E 023°39'6 5.9
2014-Oct-25 00:30N 70°38' E 023°22'1311.5
2014-Oct-24 23:21N 70°30' E 022°51'8910.1
2014-Oct-24 14:33N 69°45' E 019°06'7 6.7
2014-Oct-24 13:34N 69°39' E 018°58'152 9.5
2014-Oct-23 21:33N 67°45' E 014°19'1010.0
2014-Oct-23 20:33N 67°35' E 014°20'1110.7
2014-Oct-23 19:33N 67°25' E 014°27'1110.9
2014-Oct-23 18:33N 67°15' E 014°12'1110.6
2014-Oct-23 17:33N 67°06' E 013°58'1110.7
2014-Oct-23 16:31N 66°58' E 013°39'29 9.6
2014-Oct-23 13:27N 66°33' E 013°01'9 9.5
2014-Oct-23 12:32N 66°24' E 012°59'8 0.3
2014-Oct-22 13:12N 66°17' E 012°56'6 8.1
2014-Oct-22 12:26N 66°23' E 012°58'7 7.9
2014-Oct-22 11:33N 66°30' E 012°59'30 7.5
2014-Oct-22 07:33N 66°57' E 013°29'9 8.7
2014-Oct-22 06:28N 67°02' E 013°49'8 8.4
2014-Oct-22 05:34N 67°08' E 014°02'8 8.4
2014-Oct-22 04:33N 67°15' E 014°12'8 8.3
2014-Oct-22 03:33N 67°22' E 014°24'6 6.1
2014-Oct-22 02:33N 67°28' E 014°24'6 6.4
2014-Oct-22 01:33N 67°35' E 014°23'7 7.0
2014-Oct-22 00:33N 67°42' E 014°22'7 7.4
2014-Oct-21 23:33N 67°49' E 014°25'143 8.4
2014-Oct-21 06:32N 69°35' E 018°50'8 8.3
2014-Oct-21 05:33N 69°42' E 019°02'93 8.4
2014-Oct-20 18:30N 70°30' E 022°53'8 8.9
2014-Oct-20 17:33N 70°36' E 023°14'8 8.3
2014-Oct-20 16:33N 70°37' E 023°38'1 0.3
2014-Oct-20 14:03N 70°38' E 023°39'0 0.0
2014-Oct-20 12:18N 70°38' E 023°39'0 0.0
2014-Oct-20 10:33N 70°38' E 023°39'  

Dump ship's entire track history